North Spring Valley, Nevada Weather observations

Data are for 10 minute period ending at time listed.
 Day   Time   Solar   Ave.   Ave.  Ave.  Vector  Max.   Baro.   Total    
  of    of     Rad.   Air    Rel.  Wind   Wind   Wind  Press.  Precip.   
Year   Day            Temp.  Hum.  Speed  Dir.   Gust                    
2015   (PST)  Kw/m2    F      %     mph   deg.    mph    mb.     in.     
-------------------------------------------------------------------------
  59   21:20   0.00   31.7    85    6.7   334     9.9   821.5    0.00 
  59   21:30   0.00   31.7    84    7.1   332    11.2   821.6    0.00 
  59   21:40   0.00   31.8    84    6.9   332     9.9   821.7    0.00 
  59   21:50   0.00   31.7    84    5.9   332     8.7   821.8    0.00 
  59   22:00   0.00   31.8    84    6.0   335     8.5   821.9    0.00 
  59   22:10   0.00   31.8    84    5.1   341     7.6   822.0    0.00 
  59   22:20   0.00   31.8    83    6.3   339    10.7   822.2    0.00 
  59   22:30   0.00   31.8    83    7.5   339    10.1   822.2    0.00 
  59   22:40   0.00   31.8    83    6.7   340     9.9   822.3    0.00 
  59   22:50   0.00   31.8    83    6.8   335    10.3   822.4    0.00 
  59   23:00   0.00   31.9    83    7.1   338     9.6   822.5    0.00 
  59   23:10   0.00   31.8    83    6.5   342    10.0   822.5    0.00 
  59   23:20   0.00   31.6    84    5.7   341     8.9   822.5    0.00 
  59   23:30   0.00   31.6    84    5.7   342     9.8   822.6    0.00 
  59   23:40   0.00   31.6    84    6.9   344     9.1   822.7    0.00 
  59   23:50   0.00   31.5    85    7.0   347     9.9   822.8    0.00 
  60    0:00   0.00   31.4    85    6.0   341     8.3   822.9    0.00 
  60    0:10   0.00   31.5    85    5.8   341     9.2   822.9    0.00 
  60    0:20   0.00   31.6    84    5.9   343     9.5   823.0    0.00 
  60    0:30   0.00   31.6    84    5.8   345     9.3   823.1    0.00 
  60    0:40   0.00   31.6    84    5.3   341     9.4   823.2    0.00 
  60    0:50   0.00   31.5    84    5.7   340     8.3   823.3    0.00 
  60    1:00   0.00   31.5    84    6.3   326     8.5   823.4    0.00 
  60    1:10   0.00   31.5    84    6.3   320     8.6   823.4    0.00 
  60    1:20   0.00   31.6    85    5.4   318     7.5   823.5    0.00 
  60    1:30   0.00   31.6    84    5.3   326     8.0   823.7    0.00 
  60    1:40   0.00   31.6    84    7.0   333    10.4   823.8    0.00 
  60    1:50   0.00   31.3    85    6.6   334     9.4   823.8    0.00 
  60    2:00   0.00   31.0    86    6.8   335    10.1   823.8    0.00 
  60    2:10   0.00   30.5    87    6.5   341     9.9   823.9    0.00 
  60    2:20   0.00   30.2    89    5.9   337     8.5   823.9    0.00 
  60    2:30   0.00   30.0    91    6.0   334     8.7   823.9    0.00 
  60    2:40   0.00   30.0    92    6.4   338    10.0   824.0    0.00 
  60    2:50   0.00   29.8    92    7.7   341    11.0   824.0    0.00 
  60    3:00   0.00   29.6    93    7.8   337    10.2   824.0    0.00 
  60    3:10   0.00   29.4    93    7.6   334    10.2   824.0    0.00 
  60    3:20   0.00   29.3    93    7.7   332    11.4   824.0    0.00 
  60    3:30   0.00   29.3    93    6.3   331     8.9   824.0    0.00 
  60    3:40   0.00   29.4    92    5.5   334     7.6   824.1    0.00 
  60    3:50   0.00   29.4    92    5.5   342     8.4   824.2    0.00 
  60    4:00   0.00   29.4    91    6.4   339     9.3   824.2    0.00 
  60    4:10   0.00   29.4    91    6.7   346     8.9   824.3    0.00 
  60    4:20   0.00   29.5    90    7.4   345    10.6   824.4    0.00 
  60    4:30   0.00   29.7    89    6.5   343     9.9   824.5    0.00 
  60    4:40   0.00   29.7    88    7.1   337    11.8   824.5    0.00 
  60    4:50   0.00   29.8    87    6.5   335     8.9   824.6    0.00 
  60    5:00   0.00   30.0    86    6.6   338     9.1   824.7    0.00 
  60    5:10   0.00   30.1    85    6.9   334     9.6   824.8    0.00 
  60    5:20   0.00   30.3    85    6.7   334    10.1   824.8    0.00 
  60    5:30   0.00   30.3    85    5.8   329     8.1   824.9    0.00 
  60    5:40   0.00   30.3    85    4.7   330     6.4   825.0    0.00 
  60    5:50   0.00   30.4    84    5.0   334     7.2   825.1    0.00 
  60    6:00   0.00   30.5    83    5.2   331     8.6   825.1    0.00 
  60    6:10   0.00   30.6    82    6.0   329     9.6   825.1    0.00 
  60    6:20   0.00   30.4    84    6.3   332     9.2   825.1    0.00 
  60    6:30   0.00   30.4    85    7.0   326    10.3   825.2    0.00 
  60    6:40   0.01   30.4    85    6.8   321    10.2   825.3    0.00 
  60    6:50   0.01   30.5    85    6.6   323     9.8   825.4    0.00 
  60    7:00   0.02   30.6    85    5.7   328     7.8   825.6    0.00 
  60    7:10   0.03   30.7    85    6.2   330     9.3   825.7    0.00 
  60    7:20   0.04   30.8    85    6.4   336     9.2   825.9    0.00 
  60    7:30   0.07   30.6    86    7.9   336    11.9   826.1    0.00 
  60    7:40   0.08   30.4    88    8.1   345    11.3   826.2    0.00 
  60    7:50   0.07   29.9    88    9.5   342    14.8   826.3    0.00 
  60    8:00   0.10   29.9    89    9.3   338    13.1   826.4    0.00 
  60    8:10   0.17   30.1    88    9.7   336    13.7   826.4    0.00 
  60    8:20   0.22   30.4    86   10.1   341    13.9   826.4    0.00 
  60    8:30   0.23   30.7    83   10.1   339    14.1   826.5    0.00 
  60    8:40   0.36   31.3    81    9.3   341    14.5   826.6    0.01 
  60    8:50   0.59   32.4    77   11.1   343    15.3   826.6    0.00 
  60    9:00   0.50   32.6    76   10.1   347    15.3   826.7    0.00 
  60    9:10   0.35   32.3    76   10.5   355    15.0   826.7    0.00 
  60    9:20   0.29   32.1    76    9.7     0    13.2   826.8    0.00 
  60    9:30   0.37   32.9    77    8.5   359    12.9   826.9    0.00 
  60    9:40   0.45   33.3    76   10.0   356    13.3   827.0    0.00 
  60    9:50   0.61   34.0    76    9.9   357    13.7   827.0    0.00 
  60   10:00   0.44   34.2    74    9.8   347    13.7   827.0    0.00 
  60   10:10   0.51   34.6    74    8.5   343    12.7   827.0    0.00 
  60   10:20   0.34   35.1    70    7.6   341    11.7   826.9    0.00 
  60   10:30   0.63   35.8    70    7.0   350    10.4   826.9    0.00 
  60   10:40   0.70   36.6    68    6.7     8    11.1   826.8    0.00 
  60   10:50   0.75   37.2    66    5.2    24    10.7   826.8    0.00 
  60   11:00   0.84   38.5    64    5.0    13     9.9   826.7    0.00 
  60   11:10   0.58   37.5    60    5.8    58    11.2   826.7    0.00 
  60   11:20   0.40   37.2    61    2.5    43     6.5   826.6    0.00 
  60   11:30   0.35   37.4    60    2.8   340     9.0   826.5    0.00 
  60   11:40   0.43   37.9    60    5.4   322     9.1   826.3    0.00 
  60   11:50   0.56   38.2    59    5.3   347    10.8   826.1    0.00 
  60   12:00   0.50   38.7    55    2.4    47     5.3   826.2    0.00 
  60   12:10   0.85   40.1    52    2.3   273     5.4   826.2    0.00 
  60   12:20   0.73   41.3    51    4.3     9     8.0   825.9    0.00 
  60   12:30   0.70   39.6    49    2.9    36     8.9   825.6    0.00 
  60   12:40   0.42   40.9    46    1.5   192     4.9   825.8    0.00 
  60   12:50   0.27   40.0    50    4.8   126    16.0   825.5    0.00 
  60   13:00   0.31   39.5    50    2.2   336     6.7   825.6    0.00 
  60   13:10   0.67   40.8    48    2.4   248     7.0   825.4    0.00 
  60   13:20   0.72   41.1    46    2.6   240     7.2   824.9    0.00 
  60   13:30   0.78   42.4    42    2.6   153     7.1   824.9    0.00 
  60   13:40   0.87   43.4    42    3.0   174     9.1   824.9    0.00 
  60   13:50   0.61   43.4    40    3.0   200     7.2   824.8    0.00 
  60   14:00   0.66   42.7    43    4.7   263    10.4   824.7    0.00 
  60   14:10   0.50   42.4    45    5.3   320    12.1   824.9    0.00 
  60   14:20   0.27   41.0    52    8.3    41    20.0   825.0    0.00 
  60   14:30   0.20   40.0    56   10.4    64    15.1   824.9    0.00 
  60   14:40   0.15   39.1    58    7.9    29    12.7   825.0    0.00 
  60   14:50   0.13   38.6    58    8.3    16    12.3   824.8    0.00 
  60   15:00   0.16   38.0    60    6.5     8     8.8   825.1    0.00 
  60   15:10   0.46   39.0    61    9.2    16    12.6   824.7    0.00 
  60   15:20   0.27   38.8    59    9.3     5    13.4   824.7    0.00 
  60   15:30   0.22   37.9    62    7.4     6    10.1   824.9    0.00 
  60   15:40   0.21   38.0    60    6.2    10     8.3   824.9    0.00 
  60   15:50   0.20   38.4    59    5.6    15     8.4   824.8    0.00 
  60   16:00   0.18   38.6    58    3.7   336     6.4   824.8    0.00 
  60   16:10   0.08   38.3    57    3.9   351     4.9   824.1    0.00 
  60   16:20   0.05   37.6    59    4.8   332     6.8   823.7    0.00 
  60   16:30   0.04   37.3    61    3.7   316     5.3   823.8    0.00 
  60   16:40   0.04   36.9    63    3.6   298     4.5   823.9    0.00 
  60   16:50   0.04   37.3    62    3.4   296     4.5   824.0    0.00 
  60   17:00   0.03   37.5    59    3.1   296     4.5   824.2    0.00 
  60   17:10   0.02   37.5    59    2.8   298     4.5   824.1    0.00 
  60   17:20   0.01   37.3    59    1.9   290     3.7   824.1    0.00 
  60   17:30   0.00   37.3    59    2.1   219     4.7   824.2    0.00 
  60   17:40   0.00   37.5    61    6.1   174    11.8   824.2    0.00 
  60   17:50   0.00   36.9    64   10.3   204    14.9   824.3    0.00 
  60   18:00   0.00   36.0    69    9.9   216    12.8   824.5    0.00 
  60   18:10   0.00   35.3    72   10.0   223    13.7   824.8    0.00 
  60   18:20   0.00   35.2    72    5.9   243    11.8   824.9    0.00 
  60   18:30   0.00   34.6    74    4.2   289     5.8   824.4    0.00 
  60   18:40   0.00   34.4    74    3.9   291     5.3   824.3    0.00 
  60   18:50   0.00   34.7    72    4.4   287     5.9   824.4    0.00 
  60   19:00   0.00   34.6    72    4.1   316     5.6   824.2    0.00 
  60   19:10   0.00   34.1    72    2.9   317     4.7   824.0    0.00 
  60   19:20   0.00   33.7    72    2.7   311     3.6   824.0    0.00 
  60   19:30   0.00   32.7    75    3.8   239     5.7   824.2    0.00 
  60   19:40   0.00   31.7    80    3.1   256     4.2   824.3    0.00 
  60   19:50   0.00   32.2    79    1.4   258     1.9   824.4    0.00 
  60   20:00   0.00   32.3    78    0.3   250     1.2   824.3    0.00 
  60   20:10   0.00   31.4    80    0.8    36     1.7   824.2    0.00 
  60   20:20   0.00   30.6    82    0.9   271     2.3   824.1    0.00 
  60   20:30   0.00   31.7    79    2.1   263     3.3   824.0    0.00 
  60   20:40   0.00   31.6    77    2.4   346     4.6   824.0    0.00 
  60   20:50   0.00   29.9    84    2.3   342     3.7   823.8    0.00 
  60   21:00   0.00   30.0    84    3.7   304     5.0   823.8    0.00 
  60   21:10   0.00   29.2    86    4.0   284     4.8   823.8    0.00 

Return to North Spring Valley graphs page.


Western Regional Climate Center,wrcc@dri.edu